createdAt,value
2024-01-07T00:00:00.305Z,6.82
2024-01-07T00:00:32.542Z,6.79
2024-01-07T00:01:04.890Z,6.76
2024-01-07T00:01:39.945Z,6.78
2024-01-07T00:02:12.016Z,6.78
2024-01-07T00:02:46.843Z,6.79
2024-01-07T00:03:19.034Z,6.79
2024-01-07T00:03:52.676Z,6.78
2024-01-07T00:04:24.881Z,6.80
2024-01-07T00:04:57.135Z,6.78
2024-01-07T00:05:33.555Z,6.76
2024-01-07T00:06:06.565Z,6.78
2024-01-07T00:06:38.628Z,6.77
2024-01-07T00:07:10.766Z,6.79
2024-01-07T00:07:42.856Z,6.81
2024-01-07T00:08:15.038Z,6.79
2024-01-07T00:08:47.021Z,6.72
2024-01-07T00:09:19.022Z,6.74
2024-01-07T00:09:51.183Z,6.78
2024-01-07T00:10:23.305Z,6.77
2024-01-07T00:10:55.791Z,6.76
2024-01-07T00:11:28.445Z,6.74
2024-01-07T00:12:00.501Z,6.76
2024-01-07T00:12:32.686Z,6.77
2024-01-07T00:13:05.187Z,6.80
2024-01-07T00:13:37.746Z,6.81
2024-01-07T00:14:09.756Z,6.82
2024-01-07T00:14:41.770Z,6.80
2024-01-07T00:15:13.758Z,6.79
2024-01-07T00:15:45.843Z,6.78
2024-01-07T00:16:17.871Z,6.73
2024-01-07T00:16:49.943Z,6.74
2024-01-07T00:17:22.393Z,6.71
2024-01-07T00:17:54.573Z,6.73
2024-01-07T00:18:26.859Z,6.72
2024-01-07T00:18:59.180Z,6.73
2024-01-07T00:19:31.322Z,6.76
2024-01-07T00:20:03.637Z,6.77
2024-01-07T00:20:37.106Z,6.75
2024-01-07T00:21:09.139Z,6.76
2024-01-07T00:21:41.120Z,6.75
2024-01-07T00:22:13.322Z,6.73
2024-01-07T00:22:45.338Z,6.71
2024-01-07T00:23:17.368Z,6.73
2024-01-07T00:23:49.393Z,6.74
2024-01-07T00:24:21.466Z,6.73
2024-01-07T00:24:53.687Z,6.72
2024-01-07T00:25:25.923Z,6.72
2024-01-07T00:25:58.205Z,6.74
2024-01-07T00:26:30.229Z,6.73
2024-01-07T00:27:02.270Z,6.76
2024-01-07T00:27:34.308Z,6.79
2024-01-07T00:28:06.780Z,6.79
2024-01-07T00:28:44.727Z,6.77
2024-01-07T00:29:16.745Z,6.80
2024-01-07T00:29:48.867Z,6.80
2024-01-07T00:30:20.940Z,6.81
2024-01-07T00:30:53.200Z,6.81
2024-01-07T00:31:25.392Z,6.78
2024-01-07T00:31:59.979Z,6.78
2024-01-07T00:32:32.003Z,6.79
2024-01-07T00:33:04.253Z,6.81
2024-01-07T00:33:36.594Z,6.81
2024-01-07T00:34:08.763Z,6.79
2024-01-07T00:34:41.242Z,6.81
2024-01-07T00:35:13.409Z,6.81
2024-01-07T00:35:46.913Z,6.81
2024-01-07T00:36:18.966Z,6.83
2024-01-07T00:36:51.292Z,6.83
2024-01-07T00:37:23.349Z,6.84
2024-01-07T00:37:55.393Z,6.84
2024-01-07T00:38:27.399Z,6.83
2024-01-07T00:38:59.454Z,6.81
2024-01-07T00:39:31.580Z,6.81
2024-01-07T00:40:04.051Z,6.82
2024-01-07T00:40:36.240Z,6.81
2024-01-07T00:41:08.214Z,6.83
2024-01-07T00:41:40.209Z,6.82
2024-01-07T00:42:12.242Z,6.84
2024-01-07T00:42:44.302Z,6.82
2024-01-07T00:43:16.342Z,6.82
2024-01-07T00:43:48.325Z,6.83
2024-01-07T00:44:20.371Z,6.83
2024-01-07T00:44:52.421Z,6.80
2024-01-07T00:45:24.469Z,6.78
2024-01-07T00:45:56.498Z,6.78
2024-01-07T00:46:28.688Z,6.78
2024-01-07T00:47:00.945Z,6.78
2024-01-07T00:47:33.029Z,6.77
2024-01-07T00:48:05.983Z,6.80
2024-01-07T00:48:38.208Z,6.77
2024-01-07T00:49:10.401Z,6.74
2024-01-07T00:49:42.560Z,6.75
2024-01-07T00:50:14.729Z,6.75
2024-01-07T00:50:48.281Z,6.77
2024-01-07T00:51:20.275Z,6.81
2024-01-07T00:51:52.826Z,6.82
2024-01-07T00:52:24.877Z,6.82
2024-01-07T00:52:56.932Z,6.82
2024-01-07T00:53:29.553Z,6.77
2024-01-07T00:54:01.602Z,6.78
2024-01-07T00:54:33.752Z,6.78
2024-01-07T00:55:07.195Z,6.79
2024-01-07T00:55:39.332Z,6.80
2024-01-07T00:56:11.346Z,6.78
2024-01-07T00:56:43.683Z,6.78
2024-01-07T00:57:15.737Z,6.78
2024-01-07T00:57:47.830Z,6.81
2024-01-07T00:58:19.948Z,6.81
2024-01-07T00:58:52.016Z,6.81
2024-01-07T00:59:24.271Z,6.81
2024-01-07T00:59:56.294Z,6.82
2024-01-07T01:00:28.334Z,6.83
2024-01-07T01:01:00.491Z,6.82
2024-01-07T01:01:32.673Z,6.81
2024-01-07T01:02:05.189Z,6.83
2024-01-07T01:02:38.701Z,6.83
2024-01-07T01:03:10.716Z,6.83
2024-01-07T01:03:42.809Z,6.84
2024-01-07T01:04:15.246Z,6.81
2024-01-07T01:04:47.594Z,6.81
2024-01-07T01:05:19.723Z,6.82
2024-01-07T01:05:53.307Z,6.82
2024-01-07T01:06:25.582Z,6.82
2024-01-07T01:06:57.797Z,6.81
2024-01-07T01:07:29.902Z,6.77
2024-01-07T01:08:01.944Z,6.82
2024-01-07T01:08:34.055Z,6.81
2024-01-07T01:09:06.182Z,6.77
2024-01-07T01:09:38.207Z,6.72
2024-01-07T01:10:11.190Z,6.76
2024-01-07T01:10:43.339Z,6.75
2024-01-07T01:11:15.858Z,6.77
2024-01-07T01:11:48.033Z,6.78
2024-01-07T01:12:20.065Z,6.82
2024-01-07T01:12:52.087Z,6.83
2024-01-07T01:13:24.138Z,6.83
2024-01-07T01:13:56.169Z,6.83
2024-01-07T01:14:28.807Z,6.83
2024-01-07T01:15:00.891Z,6.84
2024-01-07T01:15:32.924Z,6.85
2024-01-07T01:16:05.547Z,6.86
2024-01-07T01:16:37.716Z,6.84
2024-01-07T01:17:09.765Z,6.88
2024-01-07T01:17:41.881Z,6.87
2024-01-07T01:18:14.010Z,6.85
2024-01-07T01:18:46.114Z,6.79
2024-01-07T01:19:19.049Z,6.78
2024-01-07T01:19:51.195Z,6.80
2024-01-07T01:20:23.313Z,6.78
2024-01-07T01:20:57.009Z,6.78
2024-01-07T01:21:29.196Z,6.80
2024-01-07T01:22:01.351Z,6.79
2024-01-07T01:22:33.566Z,6.78
2024-01-07T01:23:05.549Z,6.76
2024-01-07T01:23:37.630Z,6.76
2024-01-07T01:24:09.694Z,6.73
2024-01-07T01:24:41.775Z,6.72
2024-01-07T01:25:14.120Z,6.74
2024-01-07T01:25:46.231Z,6.75
2024-01-07T01:26:18.263Z,6.77
2024-01-07T01:26:50.277Z,6.76
2024-01-07T01:27:22.311Z,6.76
2024-01-07T01:27:54.433Z,6.72
2024-01-07T01:28:26.465Z,6.75
2024-01-07T01:28:58.545Z,6.73
2024-01-07T01:29:30.674Z,6.72
2024-01-07T01:30:02.752Z,6.66
2024-01-07T01:30:34.911Z,6.67
2024-01-07T01:31:07.166Z,6.66
2024-01-07T01:31:39.313Z,6.69
2024-01-07T01:32:11.427Z,6.73
2024-01-07T01:32:43.950Z,6.72
2024-01-07T01:33:16.034Z,6.75
2024-01-07T01:33:48.451Z,6.76
2024-01-07T01:34:20.765Z,6.77
2024-01-07T01:34:53.205Z,6.76
2024-01-07T01:35:25.285Z,6.78
2024-01-07T01:36:05.080Z,6.75
2024-01-07T01:36:37.135Z,6.75
2024-01-07T01:37:10.361Z,6.73
2024-01-07T01:37:42.406Z,6.73
2024-01-07T01:38:14.591Z,6.75
2024-01-07T01:38:46.621Z,6.75
2024-01-07T01:39:18.659Z,6.78
2024-01-07T01:39:50.671Z,6.77
2024-01-07T01:40:22.705Z,6.78
2024-01-07T01:40:55.206Z,6.77
2024-01-07T01:41:27.244Z,6.76
2024-01-07T01:41:59.447Z,6.77
2024-01-07T01:42:31.534Z,6.77
2024-01-07T01:43:03.860Z,6.77
2024-01-07T01:43:36.022Z,6.77
2024-01-07T01:44:08.067Z,6.76
2024-01-07T01:44:47.816Z,6.77
2024-01-07T01:45:20.045Z,6.74
2024-01-07T01:45:52.342Z,6.76
2024-01-07T01:46:24.799Z,6.74
2024-01-07T01:46:57.057Z,6.75
2024-01-07T01:47:31.138Z,6.75
2024-01-07T01:48:03.586Z,6.77
2024-01-07T01:48:37.391Z,6.78
2024-01-07T01:49:10.085Z,6.79
2024-01-07T01:49:42.576Z,6.77
2024-01-07T01:50:14.904Z,6.81
2024-01-07T01:50:48.604Z,6.82
2024-01-07T01:51:22.492Z,6.83
2024-01-07T01:51:55.111Z,6.83
2024-01-07T01:52:28.320Z,6.82
2024-01-07T01:53:00.802Z,6.83
2024-01-07T01:53:34.369Z,6.80
2024-01-07T01:54:07.239Z,6.78
2024-01-07T01:54:40.460Z,6.72
2024-01-07T01:55:13.487Z,6.77
2024-01-07T01:55:45.732Z,6.77
2024-01-07T01:56:19.514Z,6.78
2024-01-07T01:56:52.292Z,6.75
2024-01-07T01:57:29.875Z,6.78
2024-01-07T01:58:04.160Z,6.76
2024-01-07T01:58:36.430Z,6.74
2024-01-07T01:59:09.666Z,6.70
2024-01-07T01:59:43.677Z,6.73
2024-01-07T02:00:16.566Z,6.71
2024-01-07T02:00:49.172Z,6.70
2024-01-07T02:01:21.329Z,6.71
2024-01-07T02:01:53.820Z,6.73
2024-01-07T02:02:25.957Z,6.74
2024-01-07T02:02:58.153Z,6.73
2024-01-07T02:03:30.305Z,6.72
2024-01-07T02:04:02.461Z,6.74
2024-01-07T02:04:35.146Z,6.71
2024-01-07T02:05:07.407Z,6.72
2024-01-07T02:05:39.830Z,6.71
2024-01-07T02:06:12.107Z,6.69
2024-01-07T02:06:46.661Z,6.71
2024-01-07T02:07:18.820Z,6.72
2024-01-07T02:07:51.399Z,6.66
2024-01-07T02:08:23.883Z,6.68
2024-01-07T02:08:56.735Z,6.66
2024-01-07T02:09:28.751Z,6.67
2024-01-07T02:10:01.307Z,6.67
2024-01-07T02:10:33.416Z,6.69
2024-01-07T02:11:21.320Z,6.66
2024-01-07T02:12:03.179Z,6.66
2024-01-07T02:12:35.289Z,6.66
2024-01-07T02:13:07.767Z,6.67
2024-01-07T02:13:40.167Z,6.66
2024-01-07T02:14:15.081Z,6.69
2024-01-07T02:14:47.133Z,6.70
2024-01-07T02:15:19.146Z,6.68
2024-01-07T02:15:51.333Z,6.69
2024-01-07T02:16:23.596Z,6.69
2024-01-07T02:16:55.816Z,6.70
2024-01-07T02:17:28.342Z,6.70
2024-01-07T02:18:00.732Z,6.68
2024-01-07T02:18:32.977Z,6.69
2024-01-07T02:19:08.732Z,6.69
2024-01-07T02:19:40.868Z,6.70
2024-01-07T02:20:12.956Z,6.70
2024-01-07T02:20:45.000Z,6.68
2024-01-07T02:21:17.375Z,6.67
2024-01-07T02:21:51.845Z,6.68
2024-01-07T02:22:24.114Z,6.68
2024-01-07T02:22:56.124Z,6.69
2024-01-07T02:23:28.157Z,6.71
2024-01-07T02:24:05.915Z,6.73
2024-01-07T02:24:37.954Z,6.76
2024-01-07T02:25:10.393Z,6.77
2024-01-07T02:25:42.472Z,6.77
2024-01-07T02:26:14.462Z,6.81
2024-01-07T02:26:46.632Z,6.82
2024-01-07T02:27:18.670Z,6.82
2024-01-07T02:27:50.820Z,6.79
2024-01-07T02:28:22.926Z,6.78
2024-01-07T02:28:54.904Z,6.76
2024-01-07T02:29:26.896Z,6.73
2024-01-07T02:29:58.966Z,6.73
2024-01-07T02:30:31.009Z,6.73
2024-01-07T02:31:03.159Z,6.73
2024-01-07T02:31:35.316Z,6.75
2024-01-07T02:32:07.670Z,6.75
2024-01-07T02:32:39.866Z,6.76
2024-01-07T02:33:12.087Z,6.78
2024-01-07T02:33:44.305Z,6.77
2024-01-07T02:34:16.585Z,6.75
2024-01-07T02:34:48.682Z,6.79
2024-01-07T02:35:20.757Z,6.79
2024-01-07T02:35:53.016Z,6.79
2024-01-07T02:36:25.075Z,6.79
2024-01-07T02:36:57.237Z,6.79
2024-01-07T02:37:29.296Z,6.79
2024-01-07T02:38:01.366Z,6.79
2024-01-07T02:38:33.366Z,6.73
2024-01-07T02:39:06.706Z,6.74
2024-01-07T02:39:38.759Z,6.73
2024-01-07T02:40:11.944Z,6.74
2024-01-07T02:40:44.042Z,6.73
2024-01-07T02:41:16.341Z,6.71
2024-01-07T02:41:49.033Z,6.72
2024-01-07T02:42:21.095Z,6.72
2024-01-07T02:42:53.132Z,6.73
2024-01-07T02:43:25.200Z,6.73
2024-01-07T02:43:57.345Z,6.75
2024-01-07T02:44:29.352Z,6.72
2024-01-07T02:45:01.405Z,6.69
2024-01-07T02:45:33.386Z,6.68
2024-01-07T02:46:05.470Z,6.66
2024-01-07T02:46:37.654Z,6.65
2024-01-07T02:47:09.696Z,6.65
2024-01-07T02:47:41.762Z,6.67
2024-01-07T02:48:13.863Z,6.70
2024-01-07T02:48:46.114Z,6.72
2024-01-07T02:49:18.350Z,6.72
2024-01-07T02:49:50.537Z,6.73
2024-01-07T02:50:22.671Z,6.69
2024-01-07T02:50:54.660Z,6.71
2024-01-07T02:51:26.721Z,6.70
2024-01-07T02:51:59.005Z,6.67
2024-01-07T02:52:31.123Z,6.63
2024-01-07T02:53:03.170Z,6.62
2024-01-07T02:53:35.183Z,6.60
2024-01-07T02:54:08.706Z,6.59
2024-01-07T02:54:40.725Z,6.56
2024-01-07T02:55:12.968Z,6.61
2024-01-07T02:55:44.999Z,6.64
2024-01-07T02:56:17.007Z,6.65
2024-01-07T02:56:49.116Z,6.68
2024-01-07T02:57:21.129Z,6.69
2024-01-07T02:57:53.406Z,6.70
2024-01-07T02:58:25.394Z,6.73
2024-01-07T02:58:57.427Z,6.72
2024-01-07T02:59:29.627Z,6.70
2024-01-07T03:00:01.694Z,6.72
2024-01-07T03:00:33.771Z,6.75
2024-01-07T03:01:09.972Z,6.75
2024-01-07T03:01:42.128Z,6.74
2024-01-07T03:02:14.177Z,6.74
2024-01-07T03:02:46.248Z,6.73
2024-01-07T03:03:18.289Z,6.74
2024-01-07T03:03:51.192Z,6.77
2024-01-07T03:04:23.215Z,6.76
2024-01-07T03:04:55.275Z,6.77
2024-01-07T03:05:27.354Z,6.77
2024-01-07T03:05:59.459Z,6.76
2024-01-07T03:06:31.608Z,6.77
2024-01-07T03:07:03.835Z,6.76
2024-01-07T03:07:36.157Z,6.77
2024-01-07T03:08:08.141Z,6.77
2024-01-07T03:08:40.151Z,6.78
2024-01-07T03:09:13.470Z,6.78
2024-01-07T03:09:48.486Z,6.78
2024-01-07T03:10:20.903Z,6.77
2024-01-07T03:10:53.053Z,6.79
2024-01-07T03:11:25.238Z,6.79
2024-01-07T03:11:57.302Z,6.79
2024-01-07T03:12:29.321Z,6.77
2024-01-07T03:13:01.394Z,6.80
2024-01-07T03:13:33.704Z,6.84
2024-01-07T03:14:05.799Z,6.82
2024-01-07T03:14:37.815Z,6.82
2024-01-07T03:15:10.229Z,6.84
2024-01-07T03:15:42.355Z,6.86
2024-01-07T03:16:20.808Z,6.84
2024-01-07T03:16:52.882Z,6.83
2024-01-07T03:17:25.115Z,6.84
2024-01-07T03:17:58.839Z,6.82
2024-01-07T03:18:31.572Z,6.81
2024-01-07T03:19:03.937Z,6.81
2024-01-07T03:19:36.156Z,6.81
2024-01-07T03:20:09.284Z,6.82
2024-01-07T03:20:41.323Z,6.82
2024-01-07T03:21:18.457Z,6.81
2024-01-07T03:21:50.824Z,6.82
2024-01-07T03:22:22.858Z,6.80
2024-01-07T03:22:54.905Z,6.80
2024-01-07T03:23:26.940Z,6.79
2024-01-07T03:23:59.007Z,6.79
2024-01-07T03:24:32.487Z,6.80
2024-01-07T03:25:05.453Z,6.81
2024-01-07T03:25:37.760Z,6.81
2024-01-07T03:26:09.768Z,6.81
2024-01-07T03:26:41.805Z,6.81
2024-01-07T03:27:13.840Z,6.82
2024-01-07T03:27:46.046Z,6.81
2024-01-07T03:28:18.266Z,6.80
2024-01-07T03:28:50.270Z,6.81
2024-01-07T03:29:22.309Z,6.79
2024-01-07T03:29:54.310Z,6.80
2024-01-07T03:30:26.567Z,6.79
2024-01-07T03:30:58.818Z,6.77
2024-01-07T03:31:31.095Z,6.77
2024-01-07T03:32:03.313Z,6.77
2024-01-07T03:32:35.353Z,6.78
2024-01-07T03:33:07.555Z,6.79
2024-01-07T03:33:40.111Z,6.79
2024-01-07T03:34:12.323Z,6.81
2024-01-07T03:34:44.813Z,6.82
2024-01-07T03:35:16.989Z,6.82
2024-01-07T03:35:48.992Z,6.84
2024-01-07T03:36:21.388Z,6.82
2024-01-07T03:36:53.363Z,6.79
2024-01-07T03:37:25.541Z,6.79
2024-01-07T03:37:57.500Z,6.81
2024-01-07T03:38:29.666Z,6.81
2024-01-07T03:39:01.665Z,6.81
2024-01-07T03:39:35.187Z,6.79
2024-01-07T03:40:11.543Z,6.81
2024-01-07T03:40:43.950Z,6.79
2024-01-07T03:41:17.400Z,6.81
2024-01-07T03:41:49.405Z,6.81
2024-01-07T03:42:21.407Z,6.83
2024-01-07T03:42:53.508Z,6.83
2024-01-07T03:43:25.684Z,6.84
2024-01-07T03:43:57.796Z,6.83
2024-01-07T03:44:30.304Z,6.84
2024-01-07T03:45:02.501Z,6.84
2024-01-07T03:45:34.601Z,6.84
2024-01-07T03:46:06.690Z,6.82
2024-01-07T03:46:38.759Z,6.82
2024-01-07T03:47:11.209Z,6.82
2024-01-07T03:47:43.297Z,6.82
2024-01-07T03:48:18.609Z,6.81
2024-01-07T03:48:50.941Z,6.82
2024-01-07T03:49:23.333Z,6.82
2024-01-07T03:49:55.342Z,6.84
2024-01-07T03:50:27.420Z,6.82
2024-01-07T03:50:59.578Z,6.82
2024-01-07T03:51:31.721Z,6.79
2024-01-07T03:52:04.095Z,6.79
2024-01-07T03:52:36.138Z,6.78
2024-01-07T03:53:08.374Z,6.79
2024-01-07T03:53:40.659Z,6.78
2024-01-07T03:54:12.617Z,6.79
2024-01-07T03:54:46.005Z,6.79
2024-01-07T03:55:18.042Z,6.81
2024-01-07T03:55:53.051Z,6.78
2024-01-07T03:56:25.122Z,6.78
2024-01-07T03:56:58.143Z,6.78
2024-01-07T03:57:30.201Z,6.78
2024-01-07T03:58:02.482Z,6.77
2024-01-07T03:58:34.495Z,6.77
2024-01-07T03:59:06.597Z,6.75
2024-01-07T03:59:38.920Z,6.76
2024-01-07T04:00:11.864Z,6.77
2024-01-07T04:00:43.996Z,6.74
2024-01-07T04:01:17.992Z,6.73
2024-01-07T04:01:50.187Z,6.70
2024-01-07T04:02:22.274Z,6.70
2024-01-07T04:02:54.268Z,6.67
2024-01-07T04:03:26.771Z,6.66
2024-01-07T04:03:58.888Z,6.62
2024-01-07T04:04:31.552Z,6.60
2024-01-07T04:05:03.798Z,6.60
2024-01-07T04:05:35.843Z,6.61
2024-01-07T04:06:08.120Z,6.63
2024-01-07T04:06:40.180Z,6.65
2024-01-07T04:07:12.465Z,6.66
2024-01-07T04:07:44.637Z,6.66
2024-01-07T04:08:17.973Z,6.67
2024-01-07T04:08:49.956Z,6.67
2024-01-07T04:09:22.061Z,6.69
2024-01-07T04:09:55.442Z,6.72
2024-01-07T04:10:27.473Z,6.74
2024-01-07T04:10:59.481Z,6.76
2024-01-07T04:11:31.509Z,6.76
2024-01-07T04:12:04.264Z,6.76
2024-01-07T04:12:36.310Z,6.76
2024-01-07T04:13:11.744Z,6.78
2024-01-07T04:13:43.822Z,6.77
2024-01-07T04:14:16.593Z,6.78
2024-01-07T04:14:48.686Z,6.77
2024-01-07T04:15:21.281Z,6.77
2024-01-07T04:15:53.727Z,6.75
2024-01-07T04:16:25.716Z,6.77
2024-01-07T04:16:57.697Z,6.78
2024-01-07T04:17:29.831Z,6.78
2024-01-07T04:18:02.772Z,6.77
2024-01-07T04:18:34.895Z,6.78
2024-01-07T04:19:07.207Z,6.76
2024-01-07T04:19:39.665Z,6.81
2024-01-07T04:20:14.336Z,6.78
2024-01-07T04:20:46.394Z,6.80
2024-01-07T04:21:18.470Z,6.81
2024-01-07T04:21:50.804Z,6.80
2024-01-07T04:22:22.864Z,6.81
2024-01-07T04:22:55.022Z,6.80
2024-01-07T04:23:27.127Z,6.81
2024-01-07T04:23:59.138Z,6.81
2024-01-07T04:24:31.173Z,6.83
2024-01-07T04:25:05.419Z,6.81
2024-01-07T04:25:37.444Z,6.82
2024-01-07T04:26:09.511Z,6.82
2024-01-07T04:26:41.699Z,6.80
2024-01-07T04:27:13.784Z,6.81
2024-01-07T04:27:46.213Z,6.81
2024-01-07T04:28:18.302Z,6.80
2024-01-07T04:28:50.656Z,6.79
2024-01-07T04:29:22.646Z,6.79
2024-01-07T04:29:54.667Z,6.79
2024-01-07T04:30:26.956Z,6.79
2024-01-07T04:30:59.202Z,6.79
2024-01-07T04:31:31.663Z,6.79
2024-01-07T04:32:04.195Z,6.79
2024-01-07T04:32:36.251Z,6.78
2024-01-07T04:33:08.634Z,6.77
2024-01-07T04:33:40.881Z,6.78
2024-01-07T04:34:13.085Z,6.77
2024-01-07T04:34:45.242Z,6.79
2024-01-07T04:35:20.771Z,6.79
2024-01-07T04:35:52.777Z,6.76
2024-01-07T04:36:25.006Z,6.76
2024-01-07T04:36:57.147Z,6.78
2024-01-07T04:37:29.161Z,6.78
2024-01-07T04:38:01.311Z,6.77
2024-01-07T04:38:33.353Z,6.78
2024-01-07T04:39:05.775Z,6.78
2024-01-07T04:39:37.883Z,6.75
2024-01-07T04:40:13.120Z,6.73
2024-01-07T04:40:45.138Z,6.73
2024-01-07T04:41:20.441Z,6.70
2024-01-07T04:41:52.453Z,6.68
2024-01-07T04:42:24.651Z,6.70
2024-01-07T04:42:56.677Z,6.71
2024-01-07T04:43:28.678Z,6.72
2024-01-07T04:44:00.766Z,6.75
2024-01-07T04:44:32.891Z,6.72
2024-01-07T04:45:05.814Z,6.71
2024-01-07T04:45:37.810Z,6.74
2024-01-07T04:46:10.056Z,6.77
2024-01-07T04:46:42.252Z,6.76
2024-01-07T04:47:27.918Z,6.77
2024-01-07T04:48:00.116Z,6.76
2024-01-07T04:48:32.331Z,6.78
2024-01-07T04:49:04.612Z,6.79
2024-01-07T04:49:36.994Z,6.80
2024-01-07T04:50:10.430Z,6.79
2024-01-07T04:50:42.856Z,6.80
2024-01-07T04:51:14.850Z,6.79
2024-01-07T04:51:47.439Z,6.81
2024-01-07T04:52:19.536Z,6.81
2024-01-07T04:52:51.585Z,6.78
2024-01-07T04:53:23.842Z,6.75
2024-01-07T04:53:55.852Z,6.72
2024-01-07T04:54:27.913Z,6.73
2024-01-07T04:55:00.002Z,6.71
2024-01-07T04:55:33.584Z,6.68
2024-01-07T04:56:06.365Z,6.70
2024-01-07T04:56:38.380Z,6.73
2024-01-07T04:57:10.425Z,6.75
2024-01-07T04:57:42.622Z,6.75
2024-01-07T04:58:14.823Z,6.73
2024-01-07T04:58:46.925Z,6.72
2024-01-07T04:59:18.971Z,6.74
2024-01-07T04:59:51.779Z,6.76
2024-01-07T05:00:23.923Z,6.77
2024-01-07T05:00:56.205Z,6.76
2024-01-07T05:01:28.405Z,6.77
2024-01-07T05:02:00.783Z,6.76
2024-01-07T05:02:32.869Z,6.77
2024-01-07T05:03:05.372Z,6.75
2024-01-07T05:03:37.525Z,6.73
2024-01-07T05:04:09.635Z,6.69
2024-01-07T05:04:43.040Z,6.70
2024-01-07T05:05:15.169Z,6.72
2024-01-07T05:05:47.358Z,6.73
2024-01-07T05:06:19.428Z,6.68
2024-01-07T05:06:54.300Z,6.67
2024-01-07T05:07:26.671Z,6.64
2024-01-07T05:08:02.055Z,6.63
2024-01-07T05:08:34.110Z,6.64
2024-01-07T05:09:06.278Z,6.63
2024-01-07T05:09:38.334Z,6.61
2024-01-07T05:10:11.160Z,6.60
2024-01-07T05:10:44.751Z,6.61
2024-01-07T05:11:16.868Z,6.60
2024-01-07T05:11:48.919Z,6.64
2024-01-07T05:12:20.930Z,6.66
2024-01-07T05:12:53.532Z,6.66
2024-01-07T05:13:25.639Z,6.65
2024-01-07T05:13:57.693Z,6.69
2024-01-07T05:14:29.836Z,6.71
2024-01-07T05:15:01.848Z,6.68
2024-01-07T05:15:33.974Z,6.70
2024-01-07T05:16:06.598Z,6.71
2024-01-07T05:16:39.037Z,6.69
2024-01-07T05:17:11.159Z,6.67
2024-01-07T05:17:44.201Z,6.64
2024-01-07T05:18:19.127Z,6.65
2024-01-07T05:18:51.697Z,6.61
2024-01-07T05:19:23.935Z,6.59
2024-01-07T05:19:56.162Z,6.57
2024-01-07T05:20:28.215Z,6.59
2024-01-07T05:21:00.315Z,6.57
2024-01-07T05:21:32.584Z,6.61
2024-01-07T05:22:04.980Z,6.66
2024-01-07T05:22:37.157Z,6.69
2024-01-07T05:23:09.184Z,6.69
2024-01-07T05:23:41.356Z,6.67
2024-01-07T05:24:13.448Z,6.72
2024-01-07T05:24:45.712Z,6.70
2024-01-07T05:25:18.213Z,6.72
2024-01-07T05:25:51.633Z,6.72
2024-01-07T05:26:23.866Z,6.69
2024-01-07T05:26:55.871Z,6.72
2024-01-07T05:27:30.582Z,6.72
2024-01-07T05:28:02.682Z,6.73
2024-01-07T05:28:34.766Z,6.72
2024-01-07T05:29:06.813Z,6.71
2024-01-07T05:29:38.851Z,6.72
2024-01-07T05:30:11.419Z,6.71
2024-01-07T05:30:45.451Z,6.70
2024-01-07T05:31:17.791Z,6.70
2024-01-07T05:31:50.006Z,6.75
2024-01-07T05:32:22.395Z,6.74
2024-01-07T05:32:54.544Z,6.70
2024-01-07T05:33:26.731Z,6.71
2024-01-07T05:33:58.906Z,6.76
2024-01-07T05:34:31.366Z,6.77
2024-01-07T05:35:04.036Z,6.80
2024-01-07T05:35:36.338Z,6.78
2024-01-07T05:36:08.627Z,6.79
2024-01-07T05:36:40.729Z,6.81
2024-01-07T05:37:15.126Z,6.81
2024-01-07T05:37:47.106Z,6.78
2024-01-07T05:38:19.116Z,6.78
2024-01-07T05:38:51.170Z,6.77
2024-01-07T05:39:23.560Z,6.78
2024-01-07T05:39:55.555Z,6.78
2024-01-07T05:40:28.871Z,6.78
2024-01-07T05:41:02.321Z,6.82
2024-01-07T05:41:34.343Z,6.82
2024-01-07T05:42:07.266Z,6.79
2024-01-07T05:42:39.408Z,6.78
2024-01-07T05:43:11.541Z,6.76
2024-01-07T05:43:43.819Z,6.78
2024-01-07T05:44:15.813Z,6.76
2024-01-07T05:44:47.890Z,6.75
2024-01-07T05:45:19.881Z,6.77
2024-01-07T05:45:52.200Z,6.76
2024-01-07T05:46:24.320Z,6.76
2024-01-07T05:46:56.320Z,6.79
2024-01-07T05:47:28.410Z,6.79
2024-01-07T05:48:00.477Z,6.81
2024-01-07T05:48:42.438Z,6.81
2024-01-07T05:49:14.754Z,6.79
2024-01-07T05:49:46.938Z,6.80
2024-01-07T05:50:19.022Z,6.81
2024-01-07T05:50:57.078Z,6.73
2024-01-07T05:51:29.197Z,6.75
2024-01-07T05:52:01.275Z,6.77
2024-01-07T05:52:33.332Z,6.77
2024-01-07T05:53:05.644Z,6.77
2024-01-07T05:53:37.800Z,6.81
2024-01-07T05:54:09.834Z,6.77
2024-01-07T05:54:41.885Z,6.78
2024-01-07T05:55:14.182Z,6.76
2024-01-07T05:55:46.277Z,6.78
2024-01-07T05:56:19.670Z,6.81
2024-01-07T05:56:52.205Z,6.82
2024-01-07T05:57:24.276Z,6.83
2024-01-07T05:57:56.398Z,6.81
2024-01-07T05:58:28.496Z,6.82
2024-01-07T05:59:00.589Z,6.82
2024-01-07T05:59:32.596Z,6.82
2024-01-07T06:00:05.703Z,6.83
2024-01-07T06:00:37.832Z,6.81
2024-01-07T06:01:10.276Z,6.81
2024-01-07T06:01:42.836Z,6.83
2024-01-07T06:02:14.937Z,6.85
2024-01-07T06:02:47.177Z,6.85
2024-01-07T06:03:19.338Z,6.86
2024-01-07T06:03:51.476Z,6.85
2024-01-07T06:04:23.641Z,6.81
2024-01-07T06:04:55.859Z,6.82
2024-01-07T06:05:28.166Z,6.83
2024-01-07T06:06:00.395Z,6.84
2024-01-07T06:06:32.780Z,6.85
2024-01-07T06:07:05.091Z,6.88
2024-01-07T06:07:37.268Z,6.85
2024-01-07T06:08:09.494Z,6.86
2024-01-07T06:08:41.961Z,6.87
2024-01-07T06:09:14.228Z,6.88
2024-01-07T06:09:46.286Z,6.88
2024-01-07T06:10:18.627Z,6.88
2024-01-07T06:10:50.672Z,6.88
2024-01-07T06:11:24.058Z,6.85
2024-01-07T06:11:56.539Z,6.84
2024-01-07T06:12:28.646Z,6.82
2024-01-07T06:13:00.686Z,6.82
2024-01-07T06:13:32.804Z,6.83
2024-01-07T06:14:04.821Z,6.81
2024-01-07T06:14:36.848Z,6.83
2024-01-07T06:15:09.618Z,6.83
2024-01-07T06:15:41.823Z,6.83
2024-01-07T06:16:14.137Z,6.81
2024-01-07T06:16:46.174Z,6.79
2024-01-07T06:17:18.228Z,6.78
2024-01-07T06:17:50.348Z,6.79
2024-01-07T06:18:22.537Z,6.81
2024-01-07T06:18:54.757Z,6.81
2024-01-07T06:19:26.816Z,6.78
2024-01-07T06:19:59.018Z,6.78
2024-01-07T06:20:31.050Z,6.80
2024-01-07T06:21:03.147Z,6.80
2024-01-07T06:21:35.274Z,6.85
2024-01-07T06:22:07.351Z,6.84
2024-01-07T06:22:39.423Z,6.84
2024-01-07T06:23:11.393Z,6.79
2024-01-07T06:23:43.494Z,6.77
2024-01-07T06:24:15.539Z,6.76
2024-01-07T06:24:47.588Z,6.74
2024-01-07T06:25:19.801Z,6.78
2024-01-07T06:25:51.936Z,6.79
2024-01-07T06:26:25.290Z,6.82
2024-01-07T06:26:57.296Z,6.82
2024-01-07T06:27:29.302Z,6.81
2024-01-07T06:28:01.587Z,6.83
2024-01-07T06:28:33.935Z,6.86
2024-01-07T06:29:06.110Z,6.87
2024-01-07T06:29:38.146Z,6.86
2024-01-07T06:30:10.922Z,6.86
2024-01-07T06:30:43.113Z,6.87
2024-01-07T06:31:15.282Z,6.86
2024-01-07T06:31:47.426Z,6.86
2024-01-07T06:32:19.568Z,6.88
2024-01-07T06:32:51.650Z,6.86
2024-01-07T06:33:23.819Z,6.84
2024-01-07T06:33:56.083Z,6.83
2024-01-07T06:34:28.251Z,6.81
2024-01-07T06:35:00.445Z,6.79
2024-01-07T06:35:32.480Z,6.78
2024-01-07T06:36:06.758Z,6.78
2024-01-07T06:36:38.811Z,6.76
2024-01-07T06:37:10.989Z,6.76
2024-01-07T06:37:43.085Z,6.79
2024-01-07T06:38:15.124Z,6.79
2024-01-07T06:38:47.252Z,6.81
2024-01-07T06:39:19.243Z,6.79
2024-01-07T06:39:51.272Z,6.79
2024-01-07T06:40:23.467Z,6.76
2024-01-07T06:40:58.494Z,6.72
2024-01-07T06:41:33.620Z,6.72
2024-01-07T06:42:06.557Z,6.74
2024-01-07T06:42:38.600Z,6.75
2024-01-07T06:43:10.711Z,6.77
2024-01-07T06:43:42.824Z,6.80
2024-01-07T06:44:14.851Z,6.80
2024-01-07T06:44:47.033Z,6.82
2024-01-07T06:45:19.036Z,6.81
2024-01-07T06:45:51.170Z,6.83
2024-01-07T06:46:23.151Z,6.78
2024-01-07T06:46:55.174Z,6.80
2024-01-07T06:47:27.280Z,6.78
2024-01-07T06:47:59.478Z,6.77
2024-01-07T06:48:31.662Z,6.75
2024-01-07T06:49:03.881Z,6.72
2024-01-07T06:49:36.036Z,6.75
2024-01-07T06:50:08.768Z,6.73
2024-01-07T06:50:41.000Z,6.71
2024-01-07T06:51:12.991Z,6.71
2024-01-07T06:51:45.008Z,6.71
2024-01-07T06:52:17.153Z,6.70
2024-01-07T06:52:49.296Z,6.69
2024-01-07T06:53:21.294Z,6.73
2024-01-07T06:53:53.350Z,6.74
2024-01-07T06:54:26.625Z,6.76
2024-01-07T06:54:58.885Z,6.77
2024-01-07T06:55:30.997Z,6.78
2024-01-07T06:56:03.102Z,6.77
2024-01-07T06:56:36.465Z,6.75
2024-01-07T06:57:08.708Z,6.73
2024-01-07T06:57:40.861Z,6.75
2024-01-07T06:58:13.017Z,6.77
2024-01-07T06:58:45.645Z,6.76
2024-01-07T06:59:17.706Z,6.77
2024-01-07T06:59:49.908Z,6.82
2024-01-07T07:00:22.199Z,6.84
2024-01-07T07:00:54.239Z,6.87
2024-01-07T07:01:26.567Z,6.87
2024-01-07T07:01:58.846Z,6.88
2024-01-07T07:02:30.951Z,6.90
2024-01-07T07:03:03.089Z,6.89
2024-01-07T07:03:35.293Z,6.91
2024-01-07T07:04:07.640Z,6.92
2024-01-07T07:04:39.947Z,6.94
2024-01-07T07:05:11.945Z,6.92
2024-01-07T07:05:44.255Z,6.91
2024-01-07T07:06:16.318Z,6.94
2024-01-07T07:06:48.696Z,6.93
2024-01-07T07:07:20.780Z,6.93
2024-01-07T07:07:55.480Z,6.93
2024-01-07T07:08:27.908Z,6.93
2024-01-07T07:08:59.921Z,6.94
2024-01-07T07:09:32.239Z,6.97
2024-01-07T07:10:04.786Z,6.97
2024-01-07T07:10:36.811Z,6.97
2024-01-07T07:11:08.943Z,6.94
2024-01-07T07:11:42.609Z,6.95
2024-01-07T07:12:14.882Z,6.93